Latest Coastal Weather Observations for Red Rocks Point

IDW60701

Issued at 10:32 am WST Saturday 30 May 2015 (issued every 10 minutes, with the page automatically refreshed every 10 minutes)

About coastal observations | Map of coastal stations | Coastal observations for WA | Marine services | Other Formats
Station Details ID: 011053 Name: RED ROCKS POINT Lat: -32.20 Lon: 127.53 Height: 3.1 m
Data from the previous 72 hours. | See also: Recent months for locations in Western Australia
Date/Time
WST
Temp

°C
Wind Pressure Rain
since 9am
mm
Weather Cloud Vis
km
Sea
Height
m
Swell
Dir
 
Speed
knots
Gust
knots
hPa Trend Height
m
Period
s
Dir
30/10:30am 17.9 WSW 7 9 1026.2 - 0.0 - - - - - - -
30/10:00am 18.3 SW 5 8 1026.5 - 0.0 - - - - - - -
30/09:30am 17.6 SSE 4 6 1026.9 - 0.0 - - - - - - -
30/09:00am 17.3 WSW 3 6 1027.0 - 0.2 - - - - - - -
30/08:30am 16.4 W 5 7 1026.8 - 0.2 - - - - - - -
30/08:00am 14.3 NW 6 7 1026.6 - 0.2 - - - - - - -
30/07:30am 10.9 WNW 8 9 1026.5 - 0.2 - - - - - - -
30/07:00am 9.0 WNW 9 11 1026.5 - 0.2 - - - - - - -
30/06:30am 9.5 WNW 9 11 1026.3 - 0.2 - - - - - - -
30/06:00am 9.4 WNW 10 11 1026.0 - 0.2 - - - - - - -
30/05:30am 9.6 NW 9 11 1026.0 - 0.2 - - - - - - -
30/05:00am 9.5 NW 9 10 1026.0 - 0.2 - - - - - - -
30/04:30am 9.5 NW 8 9 1025.7 - 0.2 - - - - - - -
30/04:00am 9.5 NW 8 9 1025.7 - 0.2 - - - - - - -
30/03:30am 9.6 NW 7 8 1025.6 - 0.2 - - - - - - -
30/03:00am 9.2 WNW 8 9 1025.7 - 0.2 - - - - - - -
30/02:30am 8.4 W 7 9 1025.8 - 0.2 - - - - - - -
30/02:00am 7.9 W 7 9 1025.9 - 0.2 - - - - - - -
30/01:30am 7.8 W 7 9 1025.9 - 0.2 - - - - - - -
30/01:00am 6.4 WNW 10 11 1026.0 - 0.2 - - - - - - -
30/12:30am 7.0 WNW 10 11 1026.2 - 0.2 - - - - - - -
30/12:00am 6.4 WNW 10 11 1026.4 - 0.2 - - - - - - -
 
Date/Time
WST
Temp

°C
Wind Pressure Rain
since 9am
mm
Weather Cloud Vis
km
Sea
Height
m
Swell
Dir
 
Speed
knots
Gust
knots
hPa Trend Height
m
Period
s
Dir
29/11:30pm 7.0 WNW 10 11 1026.5 - 0.2 - - - - - - -
29/11:00pm 7.3 WNW 8 10 1026.6 - 0.2 - - - - - - -
29/10:30pm 8.8 W 6 9 1026.8 - 0.2 - - - - - - -
29/10:00pm 10.2 SSW 6 7 1026.9 - 0.2 - - - - - - -
29/09:30pm 11.6 SSW 6 8 1026.9 - 0.2 - - - - - - -
29/09:00pm 11.8 S 6 8 1026.8 - 0.2 - - - - - - -
29/08:30pm 11.5 SSW 6 8 1026.7 - 0.2 - - - - - - -
29/08:00pm 12.2 SSW 7 9 1026.7 - 0.2 - - - - - - -
29/07:30pm 12.6 SSW 6 10 1026.7 - 0.2 - - - - - - -
29/07:00pm 12.1 SSW 5 7 1026.6 - 0.2 - - - - - - -
29/06:30pm 12.8 SSW 6 7 1026.3 - 0.2 - - - - - - -
29/06:00pm 14.1 S 7 9 1026.1 - 0.2 - - - - - - -
29/05:30pm 14.2 S 6 9 1025.8 - 0.2 - - - - - - -
29/05:00pm 14.5 S 8 10 1025.6 - 0.2 - - - - - - -
29/04:30pm 14.1 SSW 7 10 1025.2 - 0.2 - - - - - - -
29/04:00pm 14.9 S 8 10 1025.0 - 0.2 - - - - - - -
29/03:30pm 15.7 S 9 13 1024.9 - 0.2 - - - - - - -
29/03:00pm 15.5 S 8 11 1024.7 - 0.2 - - - - - - -
29/02:30pm 16.5 S 9 11 1024.7 - 0.2 - - - - - - -
29/02:00pm 17.4 SSW 8 11 1024.6 - 0.2 - - - - - - -
29/01:30pm 16.8 SSW 8 10 1024.7 - 0.0 - - - - - - -
29/01:00pm 16.2 S 8 10 1024.8 - 0.0 - - - - - - -
29/12:30pm 16.5 S 9 11 1024.9 - 0.0 - - - - - - -
29/12:00pm 17.4 S 8 10 1025.3 - 0.0 - - - - - - -
29/11:30am 17.3 S 7 9 1025.6 - 0.0 - - - - - - -
29/11:00am 17.0 S 8 10 1026.0 - 0.0 - - - - - - -
29/10:30am 16.0 SSW 6 10 1026.5 - 0.0 - - - - - - -
29/10:00am 15.3 SW 7 10 1027.0 - 0.0 - - - - - - -
29/09:30am 16.7 NW 2 5 1027.0 - 0.0 - - - - - - -
29/09:00am 15.5 NNW 5 6 1027.0 - 1.2 - - - - - - -
29/08:30am 14.1 NNW 6 7 1026.9 - 1.2 - - - - - - -
29/08:00am 12.1 NW 7 9 1026.6 - 1.2 - - - - - - -
29/07:30am 11.8 NW 5 8 1026.2 - 1.2 - - - - - - -
29/07:00am 9.9 WNW 7 8 1026.0 - 1.2 - - - - - - -
29/06:30am 10.5 NNW 6 8 1025.8 - 1.2 - - - - - - -
29/06:00am 10.0 WNW 8 10 1025.6 - 1.2 - - - - - - -
29/05:30am 10.1 NW 8 9 1025.3 - 0.6 - - - - - - -
29/05:00am 10.6 WNW 6 11 1025.1 - 0.6 - - - - - - -
29/04:30am 15.0 SSE 10 13 1024.6 - 0.6 - - - - - - -
29/04:00am 15.3 SSE 10 11 1024.5 - 0.6 - - - - - - -
29/03:30am 14.9 SSE 9 10 1024.4 - 0.6 - - - - - - -
29/03:00am 14.9 SSE 9 11 1024.4 - 0.6 - - - - - - -
29/02:30am 14.7 SSE 11 14 1024.5 - 0.6 - - - - - - -
29/02:00am 15.0 SE 10 13 1024.4 - 0.6 - - - - - - -
29/01:30am 15.0 ESE 10 13 1024.6 - 0.6 - - - - - - -
29/01:00am 14.9 ESE 9 11 1024.8 - 0.6 - - - - - - -
29/12:30am 14.6 ESE 9 10 1024.8 - 0.6 - - - - - - -
29/12:00am 14.5 SE 11 13 1024.7 - 0.6 - - - - - - -
 
Date/Time
WST
Temp

°C
Wind Pressure Rain
since 9am
mm
Weather Cloud Vis
km
Sea
Height
m
Swell
Dir
 
Speed
knots
Gust
knots
hPa Trend Height
m
Period
s
Dir
28/11:30pm 14.9 SE 8 11 1024.7 - 0.6 - - - - - - -
28/11:00pm 14.3 SE 9 11 1024.9 - 0.6 - - - - - - -
28/10:30pm 15.4 S 10 12 1024.9 - 0.6 - - - - - - -
28/10:00pm 15.6 SSE 10 12 1024.9 - 0.6 - - - - - - -
28/09:30pm 15.2 S 10 13 1024.9 - 0.6 - - - - - - -
28/09:00pm 14.7 S 12 14 1024.7 - 0.6 - - - - - - -
28/08:30pm 14.2 SSW 9 11 1024.7 - 0.6 - - - - - - -
28/08:00pm 14.5 S 13 16 1024.4 - 0.6 - - - - - - -
28/07:30pm 14.1 S 13 16 1024.2 - 0.4 - - - - - - -
28/07:00pm 14.1 S 14 20 1024.1 - 0.4 - - - - - - -
28/06:30pm 14.6 S 16 20 1023.7 - 0.4 - - - - - - -
28/06:00pm 15.9 S 11 14 1023.1 - 0.0 - - - - - - -
28/05:30pm 15.9 S 12 14 1022.8 - 0.0 - - - - - - -
28/05:00pm 15.7 S 9 11 1022.5 - 0.0 - - - - - - -
28/04:30pm 16.3 S 10 11 1022.3 - 0.0 - - - - - - -
28/04:00pm 16.6 S 10 11 1022.0 - 0.0 - - - - - - -
28/03:30pm 17.2 SSW 8 10 1021.8 - 0.0 - - - - - - -
28/03:00pm 17.7 S 9 11 1021.6 - 0.0 - - - - - - -
28/02:30pm 18.3 S 9 11 1021.4 - 0.0 - - - - - - -
28/02:00pm 18.0 SSW 7 10 1021.3 - 0.0 - - - - - - -
28/01:30pm 18.3 SSW 9 11 1021.0 - 0.0 - - - - - - -
28/01:00pm 18.8 S 9 11 1021.1 - 0.0 - - - - - - -
28/12:30pm 19.1 S 9 13 1021.1 - 0.0 - - - - - - -
28/12:00pm 19.3 SSW 9 12 1021.3 - 0.0 - - - - - - -
28/11:30am 19.0 SW 10 13 1021.5 - 0.0 - - - - - - -
28/11:00am 19.4 WSW 9 12 1021.8 - 0.0 - - - - - - -
28/10:30am 19.8 WSW 8 12 1022.0 - 0.0 - - - - - - -
28/10:00am 19.0 WSW 8 11 1022.3 - 0.0 - - - - - - -
28/09:30am 18.0 W 7 11 1022.6 - 0.0 - - - - - - -
28/09:00am 15.7 WNW 5 7 1022.6 - 0.0 - - - - - - -
28/08:30am 13.6 NW 7 9 1022.4 - 0.0 - - - - - - -
28/08:00am 12.0 WNW 8 10 1021.9 - 0.0 - - - - - - -
28/07:30am 9.9 NW 10 11 1021.6 - 0.0 - - - - - - -
28/07:00am 8.4 NW 11 11 1021.4 - 0.0 - - - - - - -
28/06:30am 7.6 WNW 11 12 1021.2 - 0.0 - - - - - - -
28/06:00am 8.0 NW 10 11 1021.0 - 0.0 - - - - - - -
28/05:30am 8.1 NW 10 11 1020.7 - 0.0 - - - - - - -
28/05:00am 8.4 NW 10 10 1020.4 - 0.0 - - - - - - -
28/04:30am 8.7 NW 10 11 1020.4 - 0.0 - - - - - - -
28/04:00am 8.0 NW 10 11 1020.3 - 0.0 - - - - - - -
28/03:30am 7.5 NW 11 12 1020.3 - 0.0 - - - - - - -
28/03:00am 8.5 WNW 10 11 1020.0 - 0.0 - - - - - - -
28/02:30am 8.7 NW 9 10 1020.1 - 0.0 - - - - - - -
28/02:00am 8.1 WNW 10 11 1020.1 - 0.0 - - - - - - -
28/01:30am 8.1 NW 10 11 1020.1 - 0.0 - - - - - - -
28/01:00am 8.8 NW 10 11 1020.3 - 0.0 - - - - - - -
28/12:30am 8.8 WNW 10 11 1020.1 - 0.0 - - - - - - -
28/12:00am 9.2 WNW 8 10 1020.1 - 0.0 - - - - - - -
 
Date/Time
WST
Temp

°C
Wind Pressure Rain
since 9am
mm
Weather Cloud Vis
km
Sea
Height
m
Swell
Dir
 
Speed
knots
Gust
knots
hPa Trend Height
m
Period
s
Dir
27/11:30pm 9.4 NW 7 8 1020.1 - 0.0 - - - - - - -
27/11:00pm 10.1 WNW 6 7 1020.2 - 0.0 - - - - - - -
27/10:30pm 10.7 W 5 6 1020.2 - 0.0 - - - - - - -
27/10:00pm 11.1 WSW 4 5 1020.4 - 0.0 - - - - - - -
27/09:30pm 13.0 SSW 6 7 1020.5 - 0.0 - - - - - - -
27/09:00pm 14.1 SSW 5 7 1020.3 - 0.0 - - - - - - -
27/08:30pm 14.7 SSW 7 10 1020.3 - 0.0 - - - - - - -
27/08:00pm 15.0 SSW 7 10 1020.5 - 0.0 - - - - - - -
27/07:30pm 15.1 SSW 8 10 1020.2 - 0.0 - - - - - - -
27/07:00pm 15.2 SSW 8 9 1020.1 - 0.0 - - - - - - -
27/06:30pm 15.1 SSW 8 10 1019.8 - 0.0 - - - - - - -
27/06:00pm 14.9 SSW 7 8 1019.7 - 0.0 - - - - - - -
27/05:30pm 14.8 SSW 7 8 1019.3 - 0.0 - - - - - - -
27/05:00pm 15.2 SSW 7 8 1019.1 - 0.0 - - - - - - -
27/04:30pm 15.9 SW 5 7 1019.0 - 0.0 - - - - - - -
27/04:00pm 17.2 SSW 5 7 1018.8 - 0.0 - - - - - - -
27/03:30pm 17.9 SSW 7 9 1018.7 - 0.0 - - - - - - -
27/03:00pm 18.3 SSW 7 9 1018.9 - 0.0 - - - - - - -
27/02:30pm 18.6 S 9 11 1018.9 - 0.0 - - - - - - -
27/02:00pm 18.9 S 9 11 1018.9 - 0.0 - - - - - - -
27/01:30pm 19.0 S 8 9 1019.0 - 0.0 - - - - - - -
27/01:00pm 19.1 S 10 11 1019.0 - 0.0 - - - - - - -
27/12:30pm 18.6 S 10 11 1019.4 - 0.0 - - - - - - -
27/12:00pm 19.0 S 8 9 1019.8 - 0.0 - - - - - - -
27/11:30am 18.1 S 8 9 1020.4 - 0.0 - - - - - - -
27/11:00am 18.4 S 6 7 1020.8 - 0.0 - - - - - - -

Other Formats:

Comma delimited format used in spreadsheet applications
http://www.bom.gov.au/fwo/IDW60701/IDW60701.94644.axf

JavaScript Object Notation format (JSON) in row-major order
http://www.bom.gov.au/fwo/IDW60701/IDW60701.94644.json